Terminal Aerodrome Forecast
Issued by NWS

Home | Current Version | Previous Version | Text Only | Print | Product List | Glossary On
Versions: 1 2 3 4 5 6 7 8 9 10 11 12 13
000
FTUS41 KCAR 302300
TAFHUL
TAF
KHUL 302332Z 3100/3124 20009KT P6SM BKN100
     FM310900 20009KT 2SM BR BKN009
     FM311200 20008KT P6SM OVC015
     FM312000 22007KT 5SM -SHRA BR OVC020=

USA.gov is the U.S. government's official web portal to all federal, state and local government web resources and services.